createdAt,value
2023-01-29T00:00:48.529Z,-2.26
2023-01-29T00:01:48.583Z,-2.23
2023-01-29T00:02:48.579Z,-2.23
2023-01-29T00:03:48.529Z,-2.24
2023-01-29T00:04:48.484Z,-2.24
2023-01-29T00:05:48.478Z,-2.26
2023-01-29T00:06:48.465Z,-2.20
2023-01-29T00:07:48.460Z,-2.17
2023-01-29T00:08:48.459Z,-2.17
2023-01-29T00:09:48.455Z,-2.17
2023-01-29T00:10:48.426Z,-2.14
2023-01-29T00:11:48.422Z,-2.14
2023-01-29T00:12:48.408Z,-2.10
2023-01-29T00:13:48.416Z,-2.10
2023-01-29T00:14:48.385Z,-2.11
2023-01-29T00:15:48.380Z,-2.13
2023-01-29T00:16:48.405Z,-2.13
2023-01-29T00:17:48.386Z,-2.16
2023-01-29T00:18:48.370Z,-2.16
2023-01-29T00:19:48.339Z,-2.16
2023-01-29T00:20:48.335Z,-2.16
2023-01-29T00:21:48.326Z,-2.17
2023-01-29T00:22:48.327Z,-2.17
2023-01-29T00:23:48.318Z,-2.16
2023-01-29T00:24:48.287Z,-2.11
2023-01-29T00:25:48.281Z,-2.06
2023-01-29T00:26:48.267Z,-2.08
2023-01-29T00:27:48.261Z,-2.02
2023-01-29T00:28:48.262Z,-1.99
2023-01-29T00:29:48.241Z,-1.96
2023-01-29T00:30:48.223Z,-1.95
2023-01-29T00:31:48.290Z,-1.93
2023-01-29T00:32:48.210Z,-1.90
2023-01-29T00:33:48.213Z,-1.87
2023-01-29T00:34:48.189Z,-1.92
2023-01-29T00:35:48.185Z,-1.88
2023-01-29T00:36:48.167Z,-1.87
2023-01-29T00:37:48.157Z,-1.85
2023-01-29T00:38:48.156Z,-1.85
2023-01-29T00:39:48.533Z,-1.85
2023-01-29T00:40:48.127Z,-1.82
2023-01-29T00:41:48.114Z,-1.85
2023-01-29T00:42:48.098Z,-1.85
2023-01-29T00:43:48.119Z,-1.88
2023-01-29T00:44:48.083Z,-1.92
2023-01-29T00:45:48.077Z,-1.98
2023-01-29T00:46:48.132Z,-1.95
2023-01-29T00:47:48.057Z,-1.96
2023-01-29T00:48:48.053Z,-1.90
2023-01-29T00:49:48.033Z,-1.95
2023-01-29T00:50:48.025Z,-1.93
2023-01-29T00:51:48.009Z,-1.88
2023-01-29T00:52:47.999Z,-1.88
2023-01-29T00:53:48.010Z,-1.88
2023-01-29T00:54:47.975Z,-1.90
2023-01-29T00:55:47.976Z,-1.90
2023-01-29T00:56:47.949Z,-1.93
2023-01-29T00:57:47.950Z,-1.95
2023-01-29T00:58:47.946Z,-1.98
2023-01-29T00:59:47.951Z,-2.00
2023-01-29T01:00:47.934Z,-1.98
2023-01-29T01:01:47.951Z,-1.98
2023-01-29T01:02:47.908Z,-1.98
2023-01-29T01:03:47.888Z,-1.98
2023-01-29T01:04:47.887Z,-1.96
2023-01-29T01:05:47.870Z,-1.95
2023-01-29T01:06:47.853Z,-1.93
2023-01-29T01:07:47.853Z,-1.92
2023-01-29T01:08:47.836Z,-1.92
2023-01-29T01:09:47.838Z,-1.93
2023-01-29T01:10:47.808Z,-1.88
2023-01-29T01:11:47.801Z,-1.87
2023-01-29T01:12:47.787Z,-1.85
2023-01-29T01:13:47.779Z,-1.87
2023-01-29T01:14:47.784Z,-1.87
2023-01-29T01:15:47.772Z,-1.87
2023-01-29T01:16:47.747Z,-1.88
2023-01-29T01:17:47.746Z,-1.88
2023-01-29T01:18:47.737Z,-1.88
2023-01-29T01:19:47.742Z,-1.82
2023-01-29T01:20:47.709Z,-1.81
2023-01-29T01:21:47.710Z,-1.75
2023-01-29T01:22:47.683Z,-1.72
2023-01-29T01:23:47.685Z,-1.75
2023-01-29T01:24:47.679Z,-1.77
2023-01-29T01:25:47.659Z,-1.77
2023-01-29T01:26:47.643Z,-1.75
2023-01-29T01:27:47.651Z,-1.78
2023-01-29T01:28:47.622Z,-1.80
2023-01-29T01:29:47.686Z,-1.78
2023-01-29T01:30:47.619Z,-1.77
2023-01-29T01:31:47.650Z,-1.75
2023-01-29T01:32:47.584Z,-1.74
2023-01-29T01:33:47.578Z,-1.77
2023-01-29T01:34:47.572Z,-1.80
2023-01-29T01:35:47.560Z,-1.78
2023-01-29T01:36:47.547Z,-1.81
2023-01-29T01:37:47.545Z,-1.85
2023-01-29T01:38:47.516Z,-1.84
2023-01-29T01:39:47.522Z,-1.82
2023-01-29T01:40:47.501Z,-1.85
2023-01-29T01:41:47.489Z,-1.87
2023-01-29T01:42:47.478Z,-1.87
2023-01-29T01:43:47.467Z,-1.88
2023-01-29T01:44:47.475Z,-1.88
2023-01-29T01:45:47.459Z,-1.88
2023-01-29T01:46:47.431Z,-1.90
2023-01-29T01:47:47.429Z,-1.88
2023-01-29T01:48:47.412Z,-1.90
2023-01-29T01:49:47.433Z,-1.90
2023-01-29T01:50:47.392Z,-1.90
2023-01-29T01:51:47.385Z,-1.92
2023-01-29T01:52:47.372Z,-1.93
2023-01-29T01:53:47.369Z,-1.95
2023-01-29T01:54:47.362Z,-1.95
2023-01-29T01:55:47.344Z,-1.96
2023-01-29T01:56:47.334Z,-1.96
2023-01-29T01:57:47.325Z,-1.98
2023-01-29T01:58:47.308Z,-1.95
2023-01-29T01:59:47.320Z,-1.93
2023-01-29T02:00:47.297Z,-1.90
2023-01-29T02:01:47.284Z,-1.92
2023-01-29T02:02:47.276Z,-1.93
2023-01-29T02:03:47.264Z,-1.93
2023-01-29T02:04:47.272Z,-1.96
2023-01-29T02:05:47.239Z,-2.00
2023-01-29T02:06:47.233Z,-2.02
2023-01-29T02:07:47.219Z,-2.05
2023-01-29T02:08:47.233Z,-2.02
2023-01-29T02:09:47.222Z,-2.03
2023-01-29T02:10:47.197Z,-1.96
2023-01-29T02:11:47.180Z,-1.99
2023-01-29T02:13:57.267Z,-1.95
2023-01-29T02:14:58.270Z,-1.93
2023-01-29T02:15:58.259Z,-1.84
2023-01-29T02:16:58.241Z,-1.80
2023-01-29T02:17:58.231Z,-1.77
2023-01-29T02:18:58.214Z,-1.80
2023-01-29T02:19:58.229Z,-1.78
2023-01-29T02:20:58.203Z,-1.78
2023-01-29T02:21:58.185Z,-1.78
2023-01-29T02:22:58.177Z,-1.78
2023-01-29T02:23:58.315Z,-1.82
2023-01-29T02:24:58.169Z,-1.82
2023-01-29T02:25:58.146Z,-1.78
2023-01-29T02:26:58.140Z,-1.77
2023-01-29T02:27:58.121Z,-1.75
2023-01-29T02:28:58.115Z,-1.72
2023-01-29T02:29:58.116Z,-1.70
2023-01-29T02:30:58.262Z,-1.69
2023-01-29T02:31:58.118Z,-1.66
2023-01-29T02:32:58.071Z,-1.74
2023-01-29T02:33:58.054Z,-1.69
2023-01-29T02:34:58.090Z,-1.67
2023-01-29T02:35:58.035Z,-1.74
2023-01-29T02:36:58.031Z,-1.77
2023-01-29T02:37:58.020Z,-1.77
2023-01-29T02:38:58.012Z,-1.81
2023-01-29T02:39:58.009Z,-1.80
2023-01-29T02:40:57.993Z,-1.84
2023-01-29T02:41:57.974Z,-1.85
2023-01-29T02:42:57.970Z,-1.88
2023-01-29T02:43:57.952Z,-1.92
2023-01-29T02:44:57.968Z,-1.93
2023-01-29T02:45:57.958Z,-1.95
2023-01-29T02:46:57.924Z,-1.88
2023-01-29T02:47:57.915Z,-1.88
2023-01-29T02:48:57.935Z,-1.88
2023-01-29T02:49:57.902Z,-1.85
2023-01-29T02:50:57.903Z,-1.84
2023-01-29T02:51:57.871Z,-1.84
2023-01-29T02:52:57.866Z,-1.77
2023-01-29T02:53:57.848Z,-1.72
2023-01-29T02:54:57.854Z,-1.64
2023-01-29T02:55:57.830Z,-1.63
2023-01-29T02:56:57.822Z,-1.62
2023-01-29T02:57:57.803Z,-1.63
2023-01-29T02:58:57.803Z,-1.66
2023-01-29T02:59:57.810Z,-1.72
2023-01-29T03:00:57.806Z,-1.75
2023-01-29T03:01:57.792Z,-1.78
2023-01-29T03:02:57.768Z,-1.78
2023-01-29T03:03:57.745Z,-1.80
2023-01-29T03:04:57.755Z,-1.75
2023-01-29T03:05:57.723Z,-1.77
2023-01-29T03:06:57.718Z,-1.75
2023-01-29T03:07:57.712Z,-1.74
2023-01-29T03:08:57.705Z,-1.74
2023-01-29T03:09:57.698Z,-1.67
2023-01-29T03:10:57.679Z,-1.64
2023-01-29T03:11:57.663Z,-1.62
2023-01-29T03:12:57.657Z,-1.63
2023-01-29T03:13:57.639Z,-1.64
2023-01-29T03:14:57.658Z,-1.64
2023-01-29T03:15:57.624Z,-1.64
2023-01-29T03:16:57.616Z,-1.64
2023-01-29T03:17:57.603Z,-1.70
2023-01-29T03:18:57.601Z,-1.63
2023-01-29T03:19:57.598Z,-1.62
2023-01-29T03:20:57.576Z,-1.64
2023-01-29T03:21:57.558Z,-1.67
2023-01-29T03:22:57.558Z,-1.72
2023-01-29T03:23:57.557Z,-1.77
2023-01-29T03:24:57.543Z,-1.80
2023-01-29T03:25:57.533Z,-1.82
2023-01-29T03:26:57.522Z,-1.80
2023-01-29T03:27:57.502Z,-1.77
2023-01-29T03:28:57.493Z,-1.77
2023-01-29T03:29:57.503Z,-1.78
2023-01-29T03:30:57.541Z,-1.78
2023-01-29T03:31:57.561Z,-1.81
2023-01-29T03:32:57.448Z,-1.87
2023-01-29T03:33:57.433Z,-1.84
2023-01-29T03:34:57.440Z,-1.81
2023-01-29T03:35:57.441Z,-1.80
2023-01-29T03:36:57.411Z,-1.84
2023-01-29T03:37:57.398Z,-1.85
2023-01-29T03:38:57.392Z,-1.85
2023-01-29T03:39:57.404Z,-1.87
2023-01-29T03:40:57.367Z,-1.85
2023-01-29T03:41:57.362Z,-1.85
2023-01-29T03:42:57.345Z,-1.85
2023-01-29T03:43:57.330Z,-1.87
2023-01-29T03:44:57.339Z,-1.82
2023-01-29T03:45:57.367Z,-1.78
2023-01-29T03:46:57.302Z,-1.70
2023-01-29T03:47:57.294Z,-1.70
2023-01-29T03:48:57.282Z,-1.72
2023-01-29T03:49:57.291Z,-1.69
2023-01-29T03:50:57.270Z,-1.69
2023-01-29T03:51:57.276Z,-1.67
2023-01-29T03:52:57.238Z,-1.72
2023-01-29T03:53:57.227Z,-1.70
2023-01-29T03:54:57.240Z,-1.69
2023-01-29T03:55:57.203Z,-1.64
2023-01-29T03:56:57.202Z,-1.66
2023-01-29T03:57:57.181Z,-1.64
2023-01-29T03:58:57.179Z,-1.62
2023-01-29T03:59:57.175Z,-1.63
2023-01-29T04:00:57.154Z,-1.64
2023-01-29T04:01:57.138Z,-1.63
2023-01-29T04:02:57.142Z,-1.64
2023-01-29T04:03:57.223Z,-1.62
2023-01-29T04:04:57.130Z,-1.63
2023-01-29T04:05:57.096Z,-1.60
2023-01-29T04:06:57.093Z,-1.60
2023-01-29T04:07:57.079Z,-1.57
2023-01-29T04:08:57.078Z,-1.56
2023-01-29T04:09:57.074Z,-1.53
2023-01-29T04:10:57.060Z,-1.56
2023-01-29T04:11:57.037Z,-1.51
2023-01-29T04:12:57.054Z,-1.53
2023-01-29T04:13:57.016Z,-1.53
2023-01-29T04:14:57.031Z,-1.51
2023-01-29T04:15:56.998Z,-1.48
2023-01-29T04:16:56.992Z,-1.48
2023-01-29T04:17:56.982Z,-1.48
2023-01-29T04:18:56.976Z,-1.48
2023-01-29T04:19:56.973Z,-1.48
2023-01-29T04:20:56.955Z,-1.49
2023-01-29T04:21:56.940Z,-1.49
2023-01-29T04:22:56.940Z,-1.48
2023-01-29T04:23:56.946Z,-1.45
2023-01-29T04:24:56.927Z,-1.43
2023-01-29T04:25:56.904Z,-1.43
2023-01-29T04:26:56.898Z,-1.42
2023-01-29T04:27:56.880Z,-1.45
2023-01-29T04:28:56.876Z,-1.41
2023-01-29T04:29:56.863Z,-1.41
2023-01-29T04:30:56.936Z,-1.41
2023-01-29T04:31:56.872Z,-1.39
2023-01-29T04:32:56.835Z,-1.39
2023-01-29T04:33:56.823Z,-1.39
2023-01-29T04:34:56.823Z,-1.39
2023-01-29T04:35:56.815Z,-1.41
2023-01-29T04:36:56.795Z,-1.38
2023-01-29T04:37:56.784Z,-1.39
2023-01-29T04:38:56.776Z,-1.38
2023-01-29T04:39:56.766Z,-1.39
2023-01-29T04:40:56.772Z,-1.38
2023-01-29T04:41:56.743Z,-1.42
2023-01-29T04:42:56.746Z,-1.42
2023-01-29T04:43:56.722Z,-1.43
2023-01-29T04:44:56.723Z,-1.46
2023-01-29T04:45:56.717Z,-1.46
2023-01-29T04:46:56.697Z,-1.48
2023-01-29T04:47:56.693Z,-1.46
2023-01-29T04:48:56.679Z,-1.46
2023-01-29T04:49:56.662Z,-1.49
2023-01-29T04:50:56.670Z,-1.56
2023-01-29T04:51:56.644Z,-1.62
2023-01-29T04:52:56.641Z,-1.64
2023-01-29T04:53:56.626Z,-1.69
2023-01-29T04:54:56.628Z,-1.75
2023-01-29T04:55:56.628Z,-1.78
2023-01-29T04:56:56.602Z,-1.82
2023-01-29T04:57:56.584Z,-1.85
2023-01-29T04:58:56.583Z,-1.88
2023-01-29T04:59:56.564Z,-1.92
2023-01-29T05:00:56.584Z,-1.92
2023-01-29T05:01:56.577Z,-1.93
2023-01-29T05:02:56.567Z,-1.98
2023-01-29T05:03:56.525Z,-1.99
2023-01-29T05:04:56.520Z,-2.00
2023-01-29T05:05:56.519Z,-2.00
2023-01-29T05:06:56.500Z,-2.03
2023-01-29T05:07:56.484Z,-2.03
2023-01-29T05:08:56.492Z,-2.00
2023-01-29T05:09:56.463Z,-2.00
2023-01-29T05:10:56.477Z,-2.02
2023-01-29T05:11:56.449Z,-2.05
2023-01-29T05:12:56.441Z,-2.02
2023-01-29T05:13:56.426Z,-2.02
2023-01-29T05:14:56.419Z,-2.00
2023-01-29T05:15:56.452Z,-2.03
2023-01-29T05:16:56.414Z,-2.03
2023-01-29T05:17:56.389Z,-2.03
2023-01-29T05:18:56.390Z,-2.00
2023-01-29T05:19:56.368Z,-2.02
2023-01-29T05:20:56.404Z,-2.05
2023-01-29T05:21:56.347Z,-2.02
2023-01-29T05:22:56.351Z,-2.02
2023-01-29T05:23:56.334Z,-2.02
2023-01-29T05:24:56.359Z,-2.02
2023-01-29T05:25:56.325Z,-2.00
2023-01-29T05:26:56.316Z,-1.99
2023-01-29T05:27:56.291Z,-1.95
2023-01-29T05:28:56.396Z,-1.99
2023-01-29T05:29:56.271Z,-1.99
2023-01-29T05:30:56.490Z,-1.98
2023-01-29T05:31:56.319Z,-1.98
2023-01-29T05:32:56.271Z,-1.96
2023-01-29T05:33:56.228Z,-1.96
2023-01-29T05:34:56.228Z,-1.93
2023-01-29T05:35:56.220Z,-1.93
2023-01-29T05:36:56.217Z,-1.90
2023-01-29T05:37:56.189Z,-1.93
2023-01-29T05:38:56.199Z,-1.90
2023-01-29T05:39:56.171Z,-1.88
2023-01-29T05:40:56.198Z,-1.88
2023-01-29T05:41:56.152Z,-1.84
2023-01-29T05:42:56.143Z,-1.82
2023-01-29T05:43:56.131Z,-1.84
2023-01-29T05:44:56.166Z,-1.81
2023-01-29T05:45:56.160Z,-1.78
2023-01-29T05:46:56.140Z,-1.80
2023-01-29T05:47:56.095Z,-1.78
2023-01-29T05:48:56.089Z,-1.78
2023-01-29T05:49:56.073Z,-1.72
2023-01-29T05:50:56.083Z,-1.72
2023-01-29T05:51:56.054Z,-1.69
2023-01-29T05:52:56.045Z,-1.69
2023-01-29T05:53:56.033Z,-1.66
2023-01-29T05:54:56.035Z,-1.67
2023-01-29T05:55:56.027Z,-1.63
2023-01-29T05:56:56.008Z,-1.64
2023-01-29T05:57:55.990Z,-1.64
2023-01-29T05:58:55.993Z,-1.69
2023-01-29T05:59:55.980Z,-1.66
2023-01-29T06:00:55.980Z,-1.63
2023-01-29T06:01:56.042Z,-1.66
2023-01-29T06:02:56.016Z,-1.67
2023-01-29T06:03:55.936Z,-1.63
2023-01-29T06:04:55.929Z,-1.64
2023-01-29T06:05:55.924Z,-1.64
2023-01-29T06:06:55.904Z,-1.60
2023-01-29T06:07:55.892Z,-1.64
2023-01-29T06:08:55.888Z,-1.64
2023-01-29T06:09:55.869Z,-1.64
2023-01-29T06:10:55.878Z,-1.64
2023-01-29T06:11:55.860Z,-1.62
2023-01-29T06:12:55.846Z,-1.62
2023-01-29T06:13:55.831Z,-1.63
2023-01-29T06:14:55.827Z,-1.62
2023-01-29T06:15:55.890Z,-1.63
2023-01-29T06:16:55.803Z,-1.62
2023-01-29T06:17:55.789Z,-1.63
2023-01-29T06:18:55.791Z,-1.62
2023-01-29T06:19:55.772Z,-1.59
2023-01-29T06:20:55.789Z,-1.57
2023-01-29T06:21:55.759Z,-1.59
2023-01-29T06:22:55.756Z,-1.59
2023-01-29T06:23:55.769Z,-1.56
2023-01-29T06:24:55.729Z,-1.59
2023-01-29T06:25:55.822Z,-1.57
2023-01-29T06:26:55.737Z,-1.57
2023-01-29T06:27:57.778Z,-1.56
2023-01-29T06:28:55.678Z,-1.57
2023-01-29T06:29:55.672Z,-1.56
2023-01-29T06:30:55.679Z,-1.57
2023-01-29T06:31:55.765Z,-1.59
2023-01-29T06:32:55.605Z,-1.59
2023-01-29T06:33:55.579Z,-1.60
2023-01-29T06:34:55.572Z,-1.60
2023-01-29T06:35:55.573Z,-1.63
2023-01-29T06:36:55.553Z,-1.60
2023-01-29T06:37:55.553Z,-1.62
2023-01-29T06:38:55.549Z,-1.60
2023-01-29T06:39:55.518Z,-1.63
2023-01-29T06:40:55.530Z,-1.59
2023-01-29T06:41:55.499Z,-1.57
2023-01-29T06:42:55.502Z,-1.60
2023-01-29T06:43:55.490Z,-1.57
2023-01-29T06:44:55.471Z,-1.60
2023-01-29T06:45:55.528Z,-1.62
2023-01-29T06:46:55.450Z,-1.60
2023-01-29T06:47:55.443Z,-1.63
2023-01-29T06:48:55.431Z,-1.63
2023-01-29T06:49:55.439Z,-1.62
2023-01-29T06:50:55.429Z,-1.64
2023-01-29T06:51:55.424Z,-1.67
2023-01-29T06:52:55.388Z,-1.63
2023-01-29T06:53:55.388Z,-1.64
2023-01-29T06:54:55.372Z,-1.63
2023-01-29T06:55:55.381Z,-1.62
2023-01-29T06:56:55.351Z,-1.60
2023-01-29T06:57:55.349Z,-1.57
2023-01-29T06:58:55.333Z,-1.59
2023-01-29T06:59:55.336Z,-1.54
2023-01-29T07:00:55.348Z,-1.59
2023-01-29T07:01:55.360Z,-1.56
2023-01-29T07:02:55.291Z,-1.56
2023-01-29T07:03:55.296Z,-1.53
2023-01-29T07:04:55.275Z,-1.56
2023-01-29T07:05:55.276Z,-1.49
2023-01-29T07:06:55.254Z,-1.49
2023-01-29T07:07:55.248Z,-1.49
2023-01-29T07:08:55.241Z,-1.51
2023-01-29T07:09:55.228Z,-1.51
2023-01-29T07:10:55.225Z,-1.51
2023-01-29T07:11:55.207Z,-1.51
2023-01-29T07:12:55.198Z,-1.48
2023-01-29T07:13:55.220Z,-1.46
2023-01-29T07:14:55.174Z,-1.48
2023-01-29T07:15:55.272Z,-1.46
2023-01-29T07:16:55.161Z,-1.46
2023-01-29T07:17:55.149Z,-1.45
2023-01-29T07:18:55.150Z,-1.45
2023-01-29T07:19:55.143Z,-1.45
2023-01-29T07:20:55.128Z,-1.42
2023-01-29T07:21:55.109Z,-1.45
2023-01-29T07:22:55.098Z,-1.42
2023-01-29T07:23:55.103Z,-1.39
2023-01-29T07:24:55.076Z,-1.39
2023-01-29T07:25:55.072Z,-1.41
2023-01-29T07:26:55.080Z,-1.36
2023-01-29T07:27:55.052Z,-1.36
2023-01-29T07:28:55.039Z,-1.39
2023-01-29T07:29:55.035Z,-1.38
2023-01-29T07:30:55.045Z,-1.38
2023-01-29T07:31:55.184Z,-1.39
2023-01-29T07:32:54.999Z,-1.31
2023-01-29T07:33:54.994Z,-1.36
2023-01-29T07:34:54.982Z,-1.31
2023-01-29T07:35:54.975Z,-1.28
2023-01-29T07:36:54.983Z,-1.35
2023-01-29T07:37:55.037Z,-1.30
2023-01-29T07:38:54.941Z,-1.30
2023-01-29T07:39:54.942Z,-1.28
2023-01-29T07:40:54.927Z,-1.25
2023-01-29T07:41:54.932Z,-1.25
2023-01-29T07:42:54.902Z,-1.27
2023-01-29T07:43:54.898Z,-1.25
2023-01-29T07:44:54.883Z,-1.25
2023-01-29T07:45:54.899Z,-1.25
2023-01-29T07:46:54.884Z,-1.25
2023-01-29T07:47:54.867Z,-1.25
2023-01-29T07:48:54.843Z,-1.23
2023-01-29T07:49:54.838Z,-1.21
2023-01-29T07:50:54.826Z,-1.21
2023-01-29T07:51:54.834Z,-1.20
2023-01-29T07:52:54.813Z,-1.20
2023-01-29T07:53:54.800Z,-1.18
2023-01-29T07:54:54.801Z,-1.17
2023-01-29T07:55:54.778Z,-1.10
2023-01-29T07:56:54.780Z,-1.10
2023-01-29T07:57:54.762Z,-1.10
2023-01-29T07:58:54.749Z,-1.07
2023-01-29T07:59:54.744Z,-1.05
2023-01-29T08:00:54.757Z,-1.05
2023-01-29T08:01:54.752Z,-1.09
2023-01-29T08:02:54.709Z,-1.06
2023-01-29T08:03:54.704Z,-1.03
2023-01-29T08:04:54.687Z,-1.03
2023-01-29T08:05:54.687Z,-1.02
2023-01-29T08:06:54.680Z,-1.05
2023-01-29T08:08:06.124Z,-1.03
2023-01-29T08:08:54.659Z,-1.03
2023-01-29T08:09:54.642Z,-1.06
2023-01-29T08:10:54.629Z,-1.03
2023-01-29T08:11:54.637Z,-1.02
2023-01-29T08:12:54.607Z,-0.99
2023-01-29T08:13:54.599Z,-1.02
2023-01-29T08:14:54.590Z,-1.00
2023-01-29T08:15:54.585Z,-1.06
2023-01-29T08:16:54.591Z,-1.02
2023-01-29T08:17:58.012Z,-1.02
2023-01-29T08:18:54.548Z,-0.97
2023-01-29T08:19:54.541Z,-0.91
2023-01-29T08:20:54.529Z,-0.91
2023-01-29T08:21:54.544Z,-0.89
2023-01-29T08:22:54.509Z,-0.86
2023-01-29T08:23:54.584Z,-0.83
2023-01-29T08:25:06.272Z,-0.75
2023-01-29T08:25:54.582Z,-0.77
2023-01-29T08:26:54.499Z,-0.69
2023-01-29T08:27:54.466Z,-0.72
2023-01-29T08:28:54.456Z,-0.66
2023-01-29T08:29:54.442Z,-0.68
2023-01-29T08:30:54.485Z,-0.81
2023-01-29T08:31:54.468Z,-0.80
2023-01-29T08:32:54.439Z,-0.75
2023-01-29T08:33:54.412Z,-0.94
2023-01-29T08:34:54.415Z,-1.02
2023-01-29T08:35:54.403Z,-1.03
2023-01-29T08:36:54.398Z,-1.06
2023-01-29T08:37:54.384Z,-1.05
2023-01-29T08:38:54.372Z,-1.05
2023-01-29T08:39:54.354Z,-1.00
2023-01-29T08:40:54.336Z,-0.92
2023-01-29T08:41:54.343Z,-0.89
2023-01-29T08:42:54.316Z,-0.99
2023-01-29T08:43:54.342Z,-1.03
2023-01-29T08:44:54.291Z,-1.05
2023-01-29T08:45:54.323Z,-1.03
2023-01-29T08:46:54.304Z,-1.03
2023-01-29T08:47:54.293Z,-1.02
2023-01-29T08:48:54.261Z,-1.05
2023-01-29T08:49:54.252Z,-1.07
2023-01-29T08:50:54.234Z,-1.06
2023-01-29T08:51:54.242Z,-1.06
2023-01-29T08:52:54.214Z,-1.06
2023-01-29T08:53:54.212Z,-1.15
2023-01-29T08:54:54.194Z,-1.18
2023-01-29T08:55:54.197Z,-1.18
2023-01-29T08:56:54.192Z,-1.18
2023-01-29T08:57:54.174Z,-1.15
2023-01-29T08:58:54.161Z,-1.18
2023-01-29T08:59:54.148Z,-1.10
2023-01-29T09:00:54.181Z,-1.10
2023-01-29T09:01:54.159Z,-1.06
2023-01-29T09:02:54.123Z,-1.05
2023-01-29T09:03:54.109Z,-1.03
2023-01-29T09:04:54.114Z,-1.05
2023-01-29T09:05:54.106Z,-0.99
2023-01-29T09:06:54.090Z,-0.94
2023-01-29T09:07:54.364Z,-0.94
2023-01-29T09:08:54.065Z,-0.94
2023-01-29T09:09:54.057Z,-0.89
2023-01-29T09:10:54.050Z,-0.89
2023-01-29T09:11:54.043Z,-0.92
2023-01-29T09:12:54.015Z,-0.89
2023-01-29T09:13:54.010Z,-0.87
2023-01-29T09:14:53.995Z,-0.87
2023-01-29T09:15:53.990Z,-0.80
2023-01-29T09:16:54.019Z,-0.75
2023-01-29T09:17:54.033Z,-0.75
2023-01-29T09:18:53.955Z,-0.62
2023-01-29T09:19:53.949Z,-0.52
2023-01-29T09:20:53.937Z,-0.37
2023-01-29T09:21:53.950Z,-0.27
2023-01-29T09:22:53.913Z,-0.23
2023-01-29T09:23:59.923Z,-0.23
2023-01-29T09:24:53.895Z,-0.13
2023-01-29T09:25:53.887Z,0.00
2023-01-29T09:26:53.893Z,0.05
2023-01-29T09:27:53.902Z,0.03
2023-01-29T09:28:53.871Z,-0.06
2023-01-29T09:29:53.851Z,0.07
2023-01-29T09:30:54.011Z,-0.09
2023-01-29T09:31:54.004Z,-0.04
2023-01-29T09:32:54.778Z,0.00
2023-01-29T09:33:53.809Z,-0.06
2023-01-29T09:34:53.793Z,-0.01
2023-01-29T09:35:53.802Z,0.02
2023-01-29T09:36:53.790Z,0.06
2023-01-29T09:37:53.806Z,-0.01
2023-01-29T09:38:53.764Z,-0.12
2023-01-29T09:39:53.754Z,-0.15
2023-01-29T09:40:53.729Z,-0.12
2023-01-29T09:41:53.761Z,-0.15
2023-01-29T09:42:53.713Z,-0.19
2023-01-29T09:43:53.704Z,-0.24
2023-01-29T09:44:53.696Z,-0.24
2023-01-29T09:45:53.694Z,-0.16
2023-01-29T09:46:53.682Z,-0.15
2023-01-29T09:47:53.664Z,-0.18
2023-01-29T09:48:53.648Z,-0.11
2023-01-29T09:49:53.642Z,-0.11
2023-01-29T09:50:53.630Z,-0.15
2023-01-29T09:51:53.644Z,-0.15
2023-01-29T09:52:53.612Z,-0.11
2023-01-29T09:53:53.628Z,-0.06
2023-01-29T09:54:53.592Z,-0.15
2023-01-29T09:55:53.584Z,-0.12
2023-01-29T09:56:53.580Z,-0.08
2023-01-29T09:57:53.565Z,-0.01
2023-01-29T09:58:53.555Z,0.09
2023-01-29T09:59:53.541Z,0.20
2023-01-29T10:00:53.532Z,0.15
2023-01-29T10:01:53.603Z,0.15
2023-01-29T10:02:53.516Z,0.20
2023-01-29T10:03:53.515Z,0.15
2023-01-29T10:04:53.545Z,0.23
2023-01-29T10:05:53.491Z,0.13
2023-01-29T10:06:53.496Z,0.12
2023-01-29T10:07:53.488Z,0.13
2023-01-29T10:08:53.445Z,0.16
2023-01-29T10:09:53.440Z,0.25
2023-01-29T10:10:53.425Z,0.24
2023-01-29T10:11:53.436Z,0.38
2023-01-29T10:12:53.408Z,0.39
2023-01-29T10:13:53.411Z,0.49
2023-01-29T10:14:53.395Z,0.49
2023-01-29T10:15:53.382Z,0.53
2023-01-29T10:16:53.435Z,0.62
2023-01-29T10:17:53.365Z,0.58
2023-01-29T10:18:53.357Z,0.52
2023-01-29T10:19:53.368Z,0.42
2023-01-29T10:20:53.332Z,0.43
2023-01-29T10:21:53.336Z,0.48
2023-01-29T10:22:53.307Z,0.61
2023-01-29T10:23:53.325Z,0.64
2023-01-29T10:24:53.290Z,0.67
2023-01-29T10:25:53.322Z,0.72
2023-01-29T10:26:53.299Z,0.78
2023-01-29T10:27:53.305Z,0.89
2023-01-29T10:28:53.257Z,0.90
2023-01-29T10:29:53.238Z,0.97
2023-01-29T10:30:53.367Z,0.83
2023-01-29T10:31:53.368Z,0.79
2023-01-29T10:32:53.205Z,0.86
2023-01-29T10:34:08.547Z,0.89
2023-01-29T10:34:53.200Z,0.86
2023-01-29T10:35:55.308Z,0.80
2023-01-29T10:36:53.183Z,0.85
2023-01-29T10:37:53.159Z,0.85
2023-01-29T10:38:53.141Z,0.90
2023-01-29T10:39:53.135Z,0.86
2023-01-29T10:40:53.127Z,0.82
2023-01-29T10:41:54.020Z,0.88
2023-01-29T10:42:53.118Z,0.85
2023-01-29T10:43:53.099Z,0.79
2023-01-29T10:44:53.091Z,0.78
2023-01-29T10:45:53.078Z,0.79
2023-01-29T10:46:53.067Z,0.92
2023-01-29T10:47:53.156Z,0.90
2023-01-29T10:48:53.045Z,0.88
2023-01-29T10:49:53.036Z,0.94
2023-01-29T10:50:53.020Z,1.01
2023-01-29T10:51:53.018Z,1.01
2023-01-29T10:52:53.021Z,0.96
2023-01-29T10:53:53.002Z,0.92
2023-01-29T10:54:53.011Z,0.88
2023-01-29T10:55:52.976Z,0.85
2023-01-29T10:56:52.968Z,0.80
2023-01-29T10:57:52.966Z,0.78
2023-01-29T10:58:52.949Z,0.70
2023-01-29T10:59:52.938Z,0.75
2023-01-29T11:00:52.936Z,0.75
2023-01-29T11:01:52.970Z,0.78
2023-01-29T11:02:53.146Z,0.76
2023-01-29T11:03:52.887Z,0.86
2023-01-29T11:04:52.883Z,0.83
2023-01-29T11:05:52.873Z,0.85
2023-01-29T11:06:52.868Z,0.90
2023-01-29T11:07:52.861Z,0.94
2023-01-29T11:08:52.856Z,1.03
2023-01-29T11:09:52.830Z,1.04
2023-01-29T11:10:52.840Z,1.10
2023-01-29T11:11:52.837Z,1.16
2023-01-29T11:12:52.818Z,1.19
2023-01-29T11:13:52.789Z,1.21
2023-01-29T11:14:52.792Z,1.26
2023-01-29T11:15:52.778Z,1.25
2023-01-29T11:16:52.835Z,1.32
2023-01-29T11:17:52.779Z,1.29
2023-01-29T11:18:52.777Z,1.26
2023-01-29T11:19:52.761Z,1.15
2023-01-29T11:20:52.734Z,1.12
2023-01-29T11:21:52.704Z,1.12
2023-01-29T11:22:52.732Z,1.00
2023-01-29T11:23:52.687Z,1.04
2023-01-29T11:24:52.681Z,1.04
2023-01-29T11:25:52.677Z,1.00
2023-01-29T11:26:52.660Z,0.98
2023-01-29T11:27:52.661Z,1.01
2023-01-29T11:28:52.638Z,1.10
2023-01-29T11:29:52.623Z,1.19
2023-01-29T11:30:52.754Z,1.16
2023-01-29T11:31:52.659Z,1.19
2023-01-29T11:32:52.613Z,1.14
2023-01-29T11:33:52.588Z,1.10
2023-01-29T11:34:52.579Z,1.19
2023-01-29T11:35:52.644Z,1.16
2023-01-29T11:36:52.560Z,1.22
2023-01-29T11:37:52.561Z,1.26
2023-01-29T11:38:52.535Z,1.19
2023-01-29T11:39:52.521Z,1.28
2023-01-29T11:40:52.535Z,1.22
2023-01-29T11:41:52.501Z,1.28
2023-01-29T11:42:52.513Z,1.21
2023-01-29T11:43:52.479Z,1.21
2023-01-29T11:44:52.472Z,1.26
2023-01-29T11:45:52.455Z,1.28
2023-01-29T11:46:52.453Z,1.36
2023-01-29T11:47:52.459Z,1.26
2023-01-29T11:48:53.592Z,1.25
2023-01-29T11:49:52.417Z,1.34
2023-01-29T11:50:52.417Z,1.47
2023-01-29T11:51:52.397Z,1.61
2023-01-29T11:52:52.410Z,1.76
2023-01-29T11:53:52.379Z,1.85
2023-01-29T11:54:52.375Z,1.75
2023-01-29T11:55:52.352Z,1.58
2023-01-29T11:56:52.356Z,1.52
2023-01-29T11:57:52.353Z,1.42
2023-01-29T11:58:52.326Z,1.37
2023-01-29T11:59:52.316Z,1.29
2023-01-29T12:00:52.342Z,1.34
2023-01-29T12:01:52.298Z,1.28
2023-01-29T12:02:52.299Z,1.34
2023-01-29T12:03:52.347Z,1.26
2023-01-29T12:04:52.269Z,1.28
2023-01-29T12:05:52.436Z,1.25
2023-01-29T12:06:52.271Z,1.24
2023-01-29T12:07:52.244Z,1.16
2023-01-29T12:08:52.225Z,1.19
2023-01-29T12:09:52.213Z,1.18
2023-01-29T12:10:52.199Z,1.10
2023-01-29T12:11:52.187Z,1.15
2023-01-29T12:12:52.201Z,1.06
2023-01-29T12:13:52.172Z,1.14
2023-01-29T12:14:52.164Z,1.14
2023-01-29T12:15:54.727Z,1.06
2023-01-29T12:16:52.171Z,0.97
2023-01-29T12:17:52.144Z,0.97
2023-01-29T12:18:52.175Z,0.98
2023-01-29T12:19:52.118Z,0.97
2023-01-29T12:20:52.149Z,0.97
2023-01-29T12:21:52.089Z,0.94
2023-01-29T12:22:52.089Z,0.96
2023-01-29T12:23:52.064Z,1.01
2023-01-29T12:24:52.061Z,1.06
2023-01-29T12:25:52.259Z,1.03
2023-01-29T12:26:52.044Z,1.07
2023-01-29T12:27:52.042Z,1.04
2023-01-29T12:28:52.030Z,1.07
2023-01-29T12:29:52.004Z,1.03
2023-01-29T12:30:52.036Z,1.10
2023-01-29T12:31:51.987Z,1.08
2023-01-29T12:32:52.006Z,1.04
2023-01-29T12:33:52.069Z,1.01
2023-01-29T12:34:51.963Z,1.00
2023-01-29T12:35:51.956Z,0.98
2023-01-29T12:36:51.944Z,0.96
2023-01-29T12:37:51.955Z,0.94
2023-01-29T12:38:51.928Z,0.98
2023-01-29T12:39:51.951Z,1.01
2023-01-29T12:40:51.904Z,0.96
2023-01-29T12:41:51.887Z,1.00
2023-01-29T12:42:51.907Z,0.98
2023-01-29T12:43:51.866Z,1.00
2023-01-29T12:44:51.875Z,1.03
2023-01-29T12:45:51.844Z,0.96
2023-01-29T12:46:51.879Z,0.97
2023-01-29T12:47:51.843Z,0.96
2023-01-29T12:48:51.820Z,0.96
2023-01-29T12:49:51.808Z,1.01
2023-01-29T12:50:51.798Z,0.98
2023-01-29T12:51:51.793Z,1.01
2023-01-29T12:52:51.803Z,1.03
2023-01-29T12:53:51.762Z,1.06
2023-01-29T12:54:51.760Z,1.06
2023-01-29T12:55:51.747Z,1.07
2023-01-29T12:56:51.737Z,1.08
2023-01-29T12:57:51.753Z,1.08
2023-01-29T12:58:51.718Z,1.14
2023-01-29T12:59:51.707Z,1.14